Time;durP1;ratioP1;P1;durP2;ratioP2;P2;SDS_P1;SDS_P2;PMS_P1;PMS_P2;Temp;Humidity;BMP_temperature;BMP_pressure;BME280_temperature;BME280_humidity;BME280_pressure;Samples;Min_cycle;Max_cycle;Signal;HPM_P1;HPM_P2
2022/09/26 00:01:23;;;;;;;;;;;;;;;14.72;60.12;99800.06;5098783;28;19941;-68
2022/09/26 00:03:49;;;;;;;;;;;;;;;14.76;60.08;99798.66;5100784;28;19938;-68
2022/09/26 00:06:16;;;;;;;;;;;;;;;14.78;60.44;99801.16;5101926;28;19912;-68
2022/09/26 00:08:43;;;;;;;;;;;;;;;14.76;59.92;99800.50;5100804;28;20295;-68
2022/09/26 00:11:10;;;;;;;;;;;;;;;14.30;60.17;99798.03;5095650;28;20105;-68
2022/09/26 00:13:36;;;;;;;;;;;;;;;13.95;62.62;99800.41;5102009;28;19924;-67
2022/09/26 00:16:02;;;;;;;;;;;;;;;13.91;63.43;99804.47;5100809;28;19942;-68
2022/09/26 00:18:27;;;;;;;;;;;;;;;13.99;63.63;99801.72;5101482;28;20206;-67
2022/09/26 00:20:53;;;;;;;;;;;;;;;14.17;63.05;99805.84;5100450;28;19927;-68
2022/09/26 00:23:18;;;;;;;;;;;;;;;14.15;63.58;99797.22;5101827;28;19920;-68
2022/09/26 00:25:50;;;;;;;;;;;;;;;14.40;62.29;99795.91;5104167;28;19912;-68
2022/09/26 00:28:16;;;;;;;;;;;;;;;14.37;61.94;99793.63;5101104;28;20125;-67
2022/09/26 00:30:43;;;;;;;;;;;;;;;14.26;62.05;99802.91;5098882;28;19919;-67
2022/09/26 00:33:08;;;;;;;;;;;;;;;14.17;63.09;99793.34;5101605;28;19983;-67
2022/09/26 00:35:34;;;;;;;;;;;;;;;14.26;62.93;99791.44;5100291;28;19919;-67
2022/09/26 00:37:59;;;;;;;;;;;;;;;14.12;63.19;99797.59;5101134;28;20010;-67
2022/09/26 00:40:26;;;;;;;;;;;;;;;14.46;62.03;99799.72;5100828;28;19987;-68
2022/09/26 00:42:52;;;;;;;;;;;;;;;14.70;60.93;99796.75;5103262;28;19948;-68
2022/09/26 00:45:18;;;;;;;;;;;;;;;14.72;60.64;99792.06;5100658;28;20085;-68
2022/09/26 00:47:49;;;;;;;;;;;;;;;14.78;60.27;99779.81;5101467;28;19916;-68
2022/09/26 00:50:23;;;;;;;;;;;;;;;14.72;60.29;99772.59;5100904;28;19927;-67
2022/09/26 00:52:51;;;;;;;;;;;;;;;14.57;60.89;99772.63;5100288;28;19916;-67
2022/09/26 00:55:19;;;;;;;;;;;;;;;14.65;60.70;99775.16;5100771;28;19912;-68
2022/09/26 00:57:49;;;;;;;;;;;;;;;14.63;60.46;99762.03;5100382;28;20286;-67
2022/09/26 01:00:14;;;;;;;;;;;;;;;14.64;60.34;99769.00;5099475;28;19912;-68
2022/09/26 01:02:40;;;;;;;;;;;;;;;14.54;61.10;99778.28;5100654;28;20022;-68
2022/09/26 01:05:07;;;;;;;;;;;;;;;14.61;60.62;99774.72;5100043;28;20226;-68
2022/09/26 01:07:32;;;;;;;;;;;;;;;14.66;60.52;99769.66;5097171;28;19954;-68
2022/09/26 01:09:57;;;;;;;;;;;;;;;14.54;60.45;99776.44;5100310;28;19920;-68
2022/09/26 01:12:23;;;;;;;;;;;;;;;14.57;60.35;99765.44;5100066;28;19922;-68
2022/09/26 01:14:52;;;;;;;;;;;;;;;14.51;60.75;99768.81;5099451;28;19933;-68
2022/09/26 01:17:18;;;;;;;;;;;;;;;14.49;60.75;99767.38;5100410;28;19951;-68
2022/09/26 01:19:55;;;;;;;;;;;;;;;14.43;60.72;99771.59;5099463;28;20209;-67
2022/09/26 01:22:38;;;;;;;;;;;;;;;14.33;60.68;99784.34;5099437;28;19923;-67
2022/09/26 01:25:15;;;;;;;;;;;;;;;14.30;60.47;99785.53;5100265;28;19947;-68
2022/09/26 01:27:54;;;;;;;;;;;;;;;14.17;60.78;99780.03;5099551;28;19924;-67
2022/09/26 01:30:21;;;;;;;;;;;;;;;14.06;61.11;99789.31;5099861;28;19924;-67
2022/09/26 01:33:02;;;;;;;;;;;;;;;14.07;61.14;99784.81;5099094;28;20205;-68
2022/09/26 01:35:46;;;;;;;;;;;;;;;14.05;61.38;99786.84;5099166;28;19935;-68
2022/09/26 01:38:22;;;;;;;;;;;;;;;13.86;61.47;99790.88;5097706;28;19916;-68
2022/09/26 01:41:06;;;;;;;;;;;;;;;13.69;63.15;99792.03;5099193;28;20264;-68
2022/09/26 01:43:34;;;;;;;;;;;;;;;13.68;63.65;99790.38;5094692;28;20109;-67
2022/09/26 01:46:04;;;;;;;;;;;;;;;13.85;62.78;99794.53;5095707;28;19915;-67
2022/09/26 01:48:32;;;;;;;;;;;;;;;13.96;62.78;99791.44;5099850;28;20288;-67
2022/09/26 01:51:11;;;;;;;;;;;;;;;13.90;62.82;99796.66;5098894;28;19931;-68
2022/09/26 01:53:49;;;;;;;;;;;;;;;13.92;62.66;99799.97;5098543;28;19942;-68
2022/09/26 01:56:18;;;;;;;;;;;;;;;13.97;62.54;99792.25;5098224;28;19912;-68
2022/09/26 01:58:50;;;;;;;;;;;;;;;14.18;61.78;99791.53;5099037;28;19955;-67
2022/09/26 02:01:17;;;;;;;;;;;;;;;14.09;61.93;99795.28;5099077;28;19952;-67
2022/09/26 02:03:45;;;;;;;;;;;;;;;13.74;63.28;99795.81;5098193;28;19924;-68
2022/09/26 02:06:33;;;;;;;;;;;;;;;13.75;63.21;99796.63;5098737;28;19947;-68
2022/09/26 02:09:03;;;;;;;;;;;;;;;13.75;63.51;99796.63;5098403;28;19947;-68
2022/09/26 02:11:28;;;;;;;;;;;;;;;13.90;62.49;99789.50;5098562;28;19919;-68
2022/09/26 02:13:57;;;;;;;;;;;;;;;13.83;62.51;99788.56;5099329;28;19916;-67
2022/09/26 02:16:29;;;;;;;;;;;;;;;13.80;63.07;99783.59;5098098;28;19969;-68
2022/09/26 02:19:14;;;;;;;;;;;;;;;13.91;62.31;99780.50;5098193;28;19961;-68
2022/09/26 02:21:40;;;;;;;;;;;;;;;13.71;63.22;99782.88;5097840;28;19919;-67
2022/09/26 02:24:05;;;;;;;;;;;;;;;13.77;62.76;99788.47;5099128;28;19935;-67
2022/09/26 02:26:32;;;;;;;;;;;;;;;13.80;62.99;99788.94;5099016;28;19924;-67
2022/09/26 02:28:58;;;;;;;;;;;;;;;13.74;63.17;99797.66;5098299;28;19915;-67
2022/09/26 02:31:24;;;;;;;;;;;;;;;13.69;62.82;99792.03;5098975;28;19919;-67
2022/09/26 02:33:51;;;;;;;;;;;;;;;13.76;62.78;99784.16;5097773;28;19915;-67
2022/09/26 02:36:20;;;;;;;;;;;;;;;13.79;62.21;99784.63;5098220;28;19920;-67
2022/09/26 02:38:46;;;;;;;;;;;;;;;13.76;62.04;99779.66;5098259;28;19999;-68
2022/09/26 02:41:17;;;;;;;;;;;;;;;13.61;62.71;99774.31;5098105;28;19920;-67
2022/09/26 02:43:43;;;;;;;;;;;;;;;13.53;62.52;99773.56;5097428;28;19916;-67
2022/09/26 02:46:11;;;;;;;;;;;;;;;13.69;61.96;99776.06;5098454;28;20141;-68
2022/09/26 02:48:52;;;;;;;;;;;;;;;13.70;61.76;99778.56;5098142;28;19965;-68
2022/09/26 02:51:27;;;;;;;;;;;;;;;13.61;62.15;99779.63;5113235;28;19924;-67
2022/09/26 02:54:04;;;;;;;;;;;;;;;13.55;62.29;99787.50;5097573;28;19920;-68
2022/09/26 02:56:33;;;;;;;;;;;;;;;13.58;62.09;99785.31;5096396;28;19997;-67
2022/09/26 02:59:07;;;;;;;;;;;;;;;13.55;61.92;99784.84;5096810;28;19919;-67
2022/09/26 03:01:42;;;;;;;;;;;;;;;13.48;61.49;99783.88;5097847;28;19938;-67
2022/09/26 03:04:22;;;;;;;;;;;;;;;13.34;62.19;99780.19;5098358;28;19965;-68
2022/09/26 03:06:50;;;;;;;;;;;;;;;13.31;62.32;99788.50;5098031;28;19930;-68
2022/09/26 03:09:16;;;;;;;;;;;;;;;13.19;62.95;99782.78;5097402;28;20133;-68
2022/09/26 03:11:42;;;;;;;;;;;;;;;13.29;62.23;99780.72;5097822;28;19983;-67
2022/09/26 03:14:07;;;;;;;;;;;;;;;13.31;62.33;99780.53;5098863;28;19919;-67
2022/09/26 03:16:35;;;;;;;;;;;;;;;12.80;64.18;99785.53;5097339;28;19961;-68
2022/09/26 03:19:18;;;;;;;;;;;;;;;12.91;63.69;99776.31;5098564;28;19912;-68
2022/09/26 03:21:44;;;;;;;;;;;;;;;13.14;63.13;99766.50;5097505;28;19916;-68
2022/09/26 03:24:10;;;;;;;;;;;;;;;13.17;62.63;99774.16;5097899;28;19927;-68
2022/09/26 03:26:36;;;;;;;;;;;;;;;13.16;62.87;99767.16;5096922;28;20113;-68
2022/09/26 03:29:01;;;;;;;;;;;;;;;13.24;61.76;99774.28;5098365;28;19926;-67
2022/09/26 03:31:27;;;;;;;;;;;;;;;13.17;60.86;99765.38;5096961;28;20319;-67
2022/09/26 03:33:52;;;;;;;;;;;;;;;13.06;61.31;99771.88;5096552;28;19912;-67
2022/09/26 03:36:20;;;;;;;;;;;;;;;13.03;61.61;99764.28;5100553;28;19955;-67
2022/09/26 03:38:45;;;;;;;;;;;;;;;12.92;63.07;99760.19;5104281;28;20134;-67
2022/09/26 03:41:10;;;;;;;;;;;;;;;12.92;63.11;99759.38;5104228;28;19916;-67
2022/09/26 03:43:36;;;;;;;;;;;;;;;13.03;62.94;99754.47;5105002;28;19951;-67
2022/09/26 03:46:05;;;;;;;;;;;;;;;13.02;62.50;99744.84;5103973;28;19923;-67
2022/09/26 03:48:30;;;;;;;;;;;;;;;13.09;62.62;99748.44;5103896;28;19931;-67
2022/09/26 03:51:00;;;;;;;;;;;;;;;13.09;62.84;99739.63;5104969;28;19928;-67
2022/09/26 03:53:26;;;;;;;;;;;;;;;13.09;62.30;99745.78;5104142;28;19935;-67
2022/09/26 03:55:51;;;;;;;;;;;;;;;13.10;62.32;99744.78;5104342;28;20257;-68
2022/09/26 03:58:16;;;;;;;;;;;;;;;13.11;62.96;99737.63;5104333;28;20090;-68
2022/09/26 04:00:42;;;;;;;;;;;;;;;13.17;63.04;99741.44;5103576;28;19975;-67
2022/09/26 04:03:07;;;;;;;;;;;;;;;13.15;63.57;99743.41;5104646;28;19912;-67
2022/09/26 04:05:32;;;;;;;;;;;;;;;13.19;63.36;99744.75;5103517;28;20129;-67
2022/09/26 04:07:58;;;;;;;;;;;;;;;13.18;63.68;99737.78;5104317;28;19949;-67
2022/09/26 04:10:24;;;;;;;;;;;;;;;13.07;63.71;99739.81;5120014;28;19924;-68
2022/09/26 04:12:49;;;;;;;;;;;;;;;13.13;63.64;99732.97;5103818;28;19912;-67
2022/09/26 04:15:14;;;;;;;;;;;;;;;13.19;63.37;99736.75;5104866;28;19916;-67
2022/09/26 04:17:39;;;;;;;;;;;;;;;13.22;63.54;99733.75;5103781;28;20056;-67
2022/09/26 04:20:05;;;;;;;;;;;;;;;13.32;63.00;99735.16;5103794;28;19947;-68
2022/09/26 04:22:30;;;;;;;;;;;;;;;13.35;62.62;99724.16;5104543;28;20003;-68
2022/09/26 04:24:56;;;;;;;;;;;;;;;13.42;62.72;99729.56;5103183;28;19916;-68
2022/09/26 04:27:21;;;;;;;;;;;;;;;13.10;63.69;99731.47;5104446;28;20173;-67
2022/09/26 04:29:46;;;;;;;;;;;;;;;13.20;63.65;99741.06;5103097;28;19916;-68
2022/09/26 04:32:12;;;;;;;;;;;;;;;12.82;64.73;99733.03;5103265;28;19982;-68
2022/09/26 04:34:39;;;;;;;;;;;;;;;12.87;65.19;99730.66;5104561;28;19927;-68
2022/09/26 04:37:04;;;;;;;;;;;;;;;13.10;64.50;99736.81;5103567;28;19919;-68
2022/09/26 04:39:30;;;;;;;;;;;;;;;13.33;63.14;99741.28;5103794;28;20090;-67
2022/09/26 04:41:55;;;;;;;;;;;;;;;13.16;63.79;99737.09;5104589;28;19928;-68
2022/09/26 04:44:20;;;;;;;;;;;;;;;13.34;63.24;99733.13;5103504;28;19939;-67
2022/09/26 04:46:46;;;;;;;;;;;;;;;12.87;65.02;99730.66;5103927;28;19987;-67
2022/09/26 04:49:12;;;;;;;;;;;;;;;13.14;63.93;99741.75;5099773;28;19916;-68
2022/09/26 04:51:37;;;;;;;;;;;;;;;13.15;63.83;99746.91;5100172;28;19912;-67
2022/09/26 04:54:02;;;;;;;;;;;;;;;13.11;64.22;99740.28;5101318;28;19919;-67
2022/09/26 04:56:28;;;;;;;;;;;;;;;13.20;64.40;99747.22;5099821;28;19947;-68
2022/09/26 04:58:55;;;;;;;;;;;;;;;13.23;63.85;99732.75;5100494;28;20142;-67
2022/09/26 05:01:20;;;;;;;;;;;;;;;13.48;63.09;99744.81;5100361;28;19919;-67
2022/09/26 05:03:46;;;;;;;;;;;;;;;13.45;62.53;99741.69;5099795;28;19915;-68
2022/09/26 05:06:12;;;;;;;;;;;;;;;13.52;62.39;99747.94;5102111;28;20105;-68
2022/09/26 05:08:39;;;;;;;;;;;;;;;13.70;63.08;99751.94;5100101;28;20120;-67
2022/09/26 05:11:05;;;;;;;;;;;;;;;13.65;63.02;99756.16;5097560;28;19943;-67
2022/09/26 05:13:30;;;;;;;;;;;;;;;13.82;62.11;99762.97;5100340;28;19927;-68
2022/09/26 05:15:59;;;;;;;;;;;;;;;13.97;61.26;99753.16;5115139;28;19916;-68
2022/09/26 05:18:25;;;;;;;;;;;;;;;14.07;60.94;99750.22;5099949;28;19920;-68
2022/09/26 05:20:51;;;;;;;;;;;;;;;14.24;60.44;99756.16;5100428;28;19969;-67
2022/09/26 05:26:19;;;;;;;;;;;;;;;14.12;61.09;99761.13;5098869;28;20014;-68
2022/09/26 05:28:55;;;;;;;;;;;;;;;14.24;60.97;99753.50;5100673;28;20228;-68
2022/09/26 05:31:23;;;;;;;;;;;;;;;14.21;61.56;99756.53;5100314;28;19923;-68
2022/09/26 05:33:50;;;;;;;;;;;;;;;14.17;61.90;99755.25;5102284;28;19916;-68
2022/09/26 05:36:16;;;;;;;;;;;;;;;14.34;61.50;99756.69;5103759;28;19987;-68
2022/09/26 05:38:42;;;;;;;;;;;;;;;15.00;60.02;99750.31;5103906;28;19918;-68
2022/09/26 05:41:07;;;;;;;;;;;;;;;15.63;57.70;99754.00;5106401;28;19916;-67
2022/09/26 05:43:33;;;;;;;;;;;;;;;15.73;57.63;99752.84;5103546;28;19911;-68
2022/09/26 05:46:03;;;;;;;;;;;;;;;15.93;57.26;99738.59;5103506;28;20010;-68
2022/09/26 05:48:29;;;;;;;;;;;;;;;15.90;57.48;99747.00;5103516;28;19912;-68
2022/09/26 05:50:54;;;;;;;;;;;;;;;16.00;57.31;99740.47;5111766;28;19962;-68
2022/09/26 05:53:20;;;;;;;;;;;;;;;16.48;56.46;99741.31;5103525;28;19912;-68
2022/09/26 05:55:49;;;;;;;;;;;;;;;16.64;55.69;99742.78;5103385;28;19931;-68
2022/09/26 05:58:14;;;;;;;;;;;;;;;16.50;57.09;99739.25;5103330;28;19918;-68
2022/09/26 06:00:40;;;;;;;;;;;;;;;16.59;56.69;99735.38;5102597;28;19939;-67
2022/09/26 06:03:05;;;;;;;;;;;;;;;16.69;57.24;99733.22;5103284;28;19982;-68
2022/09/26 06:05:33;;;;;;;;;;;;;;;17.02;57.55;99727.91;5102988;28;19916;-68
2022/09/26 06:08:00;;;;;;;;;;;;;;;17.14;57.25;99728.97;5102980;28;19912;-68
2022/09/26 06:10:26;;;;;;;;;;;;;;;17.42;56.21;99722.56;5103079;28;19916;-68
2022/09/26 06:12:51;;;;;;;;;;;;;;;17.72;55.43;99714.97;5103336;28;19922;-68
2022/09/26 06:15:16;;;;;;;;;;;;;;;18.16;54.07;99706.19;5102939;28;19912;-68
2022/09/26 06:17:42;;;;;;;;;;;;;;;18.54;53.24;99703.53;5102799;28;19912;-68
2022/09/26 06:20:07;;;;;;;;;;;;;;;18.59;53.16;99702.91;5102901;28;19951;-68
2022/09/26 06:22:39;;;;;;;;;;;;;;;18.45;53.86;99712.88;5100947;28;20009;-68
2022/09/26 06:25:05;;;;;;;;;;;;;;;18.35;54.75;99713.34;5098927;28;19993;-68
2022/09/26 06:27:31;;;;;;;;;;;;;;;18.60;54.18;99715.28;5098167;28;19912;-68
2022/09/26 06:29:56;;;;;;;;;;;;;;;18.83;53.46;99720.16;5098953;28;19983;-68
2022/09/26 06:32:21;;;;;;;;;;;;;;;18.96;52.87;99717.38;5098471;28;19912;-68
2022/09/26 06:34:47;;;;;;;;;;;;;;;19.08;52.44;99715.66;5099561;28;19942;-67
2022/09/26 06:37:12;;;;;;;;;;;;;;;19.23;52.17;99723.38;5098365;28;19920;-68
2022/09/26 06:39:37;;;;;;;;;;;;;;;19.39;51.81;99723.66;5097669;28;19928;-68
2022/09/26 06:42:04;;;;;;;;;;;;;;;19.49;51.20;99725.00;5099336;28;20138;-67
2022/09/26 06:44:29;;;;;;;;;;;;;;;19.68;50.74;99732.09;5092666;28;20186;-68
2022/09/26 06:46:55;;;;;;;;;;;;;;;19.46;51.35;99732.47;5097917;28;19919;-68
2022/09/26 06:49:20;;;;;;;;;;;;;;;19.60;51.28;99743.13;5098878;28;19931;-68
2022/09/26 06:51:47;;;;;;;;;;;;;;;19.55;51.48;99748.34;5097827;28;19979;-68
2022/09/26 06:54:13;;;;;;;;;;;;;;;19.55;51.77;99751.03;5096726;28;19916;-68
2022/09/26 06:56:38;;;;;;;;;;;;;;;19.88;50.69;99748.88;5098590;28;19920;-68
2022/09/26 06:59:03;;;;;;;;;;;;;;;20.01;50.56;99753.28;5097668;28;19912;-68
2022/09/26 07:01:28;;;;;;;;;;;;;;;19.88;51.17;99751.56;5097740;28;19975;-68
2022/09/26 07:03:54;;;;;;;;;;;;;;;20.23;50.01;99746.41;5098025;28;19931;-68
2022/09/26 07:06:19;;;;;;;;;;;;;;;20.36;49.95;99743.56;5097935;28;20205;-68
2022/09/26 07:08:44;;;;;;;;;;;;;;;20.78;48.30;99749.06;5098772;28;20179;-68
2022/09/26 07:11:09;;;;;;;;;;;;;;;21.02;47.62;99744.59;5095603;28;20429;-69
2022/09/26 07:13:35;;;;;;;;;;;;;;;21.29;46.59;99734.28;5097436;28;19919;-68
2022/09/26 07:16:00;;;;;;;;;;;;;;;21.30;46.93;99717.88;5098589;28;19923;-68
2022/09/26 07:18:25;;;;;;;;;;;;;;;21.46;46.85;99723.63;5097164;28;19919;-68
2022/09/26 07:20:52;;;;;;;;;;;;;;;21.58;46.38;99721.75;5097663;28;19931;-68
2022/09/26 07:23:17;;;;;;;;;;;;;;;21.80;45.40;99720.13;5098493;28;19912;-68
2022/09/26 07:25:45;;;;;;;;;;;;;;;22.05;45.08;99719.09;5097344;28;19982;-68
2022/09/26 07:28:11;;;;;;;;;;;;;;;21.96;45.05;99716.72;5097524;28;20181;-69
2022/09/26 07:30:36;;;;;;;;;;;;;;;22.28;44.08;99717.16;5097911;28;19969;-68
2022/09/26 07:33:02;;;;;;;;;;;;;;;22.46;43.33;99709.94;5097299;28;19997;-68
2022/09/26 07:35:31;;;;;;;;;;;;;;;22.42;43.54;99717.69;5098438;28;19916;-68
2022/09/26 07:37:58;;;;;;;;;;;;;;;22.45;43.83;99729.88;5098527;28;19932;-68
2022/09/26 07:40:24;;;;;;;;;;;;;;;22.83;42.88;99718.50;5097585;28;19977;-68
2022/09/26 07:42:51;;;;;;;;;;;;;;;22.92;42.79;99714.38;5096639;28;20244;-69
2022/09/26 07:45:16;;;;;;;;;;;;;;;22.97;42.32;99711.75;5097602;28;19962;-69
2022/09/26 07:50:26;;;;;;;;;;;;;;;23.14;41.86;99693.69;5096775;28;20306;-68
2022/09/26 07:52:51;;;;;;;;;;;;;;;23.11;42.06;99682.56;5097810;28;19987;-68
2022/09/26 07:55:21;;;;;;;;;;;;;;;23.19;41.86;99691.06;5097998;28;19987;-68
2022/09/26 07:57:48;;;;;;;;;;;;;;;23.44;41.55;99695.22;5096957;28;19942;-68
2022/09/26 08:00:16;;;;;;;;;;;;;;;23.17;41.82;99693.19;5096761;28;19916;-68
2022/09/26 08:02:44;;;;;;;;;;;;;;;22.99;41.87;99692.63;5097818;28;20086;-68
2022/09/26 08:05:10;;;;;;;;;;;;;;;22.87;41.47;99701.56;5097022;28;19923;-68
2022/09/26 08:07:35;;;;;;;;;;;;;;;22.47;43.15;99712.41;5097070;28;20113;-68
2022/09/26 08:10:02;;;;;;;;;;;;;;;22.04;43.82;99709.38;5096991;28;19979;-68
2022/09/26 08:12:32;;;;;;;;;;;;;;;22.30;42.34;99689.94;5097155;28;19942;-68
2022/09/26 08:14:58;;;;;;;;;;;;;;;22.56;40.73;99685.84;5096947;28;19983;-69
2022/09/26 08:17:23;;;;;;;;;;;;;;;22.88;41.28;99684.31;5097841;28;19954;-68
2022/09/26 08:19:48;;;;;;;;;;;;;;;22.75;42.09;99676.50;5096914;28;19928;-68
2022/09/26 08:22:14;;;;;;;;;;;;;;;23.07;40.98;99681.41;5097486;28;19949;-68
2022/09/26 08:24:39;;;;;;;;;;;;;;;23.36;39.26;99660.53;5101797;28;19931;-68
2022/09/26 08:27:05;;;;;;;;;;;;;;;23.39;39.73;99652.75;5100388;28;21562;-68
2022/09/26 08:29:33;;;;;;;;;;;;;;;23.60;38.18;99642.25;5100303;28;19982;-68
2022/09/26 08:32:01;;;;;;;;;;;;;;;23.63;37.66;99628.22;5101097;28;19962;-68
2022/09/26 08:34:27;;;;;;;;;;;;;;;22.79;37.62;99614.72;5100244;28;20046;-68
2022/09/26 08:36:53;;;;;;;;;;;;;;;22.51;40.67;99615.59;5100567;28;20194;-68
2022/09/26 08:39:19;;;;;;;;;;;;;;;22.93;39.46;99624.22;5101074;28;19924;-68
2022/09/26 08:41:44;;;;;;;;;;;;;;;23.34;38.72;99616.72;5099983;28;19920;-68
2022/09/26 08:44:30;;;;;;;;;;;;;;;23.66;37.77;99622.31;5100826;28;19911;-68
2022/09/26 08:47:01;;;;;;;;;;;;;;;23.72;36.60;99616.72;5094557;28;19916;-68
2022/09/26 08:49:37;;;;;;;;;;;;;;;23.52;36.79;99633.47;5100178;28;20263;-68
2022/09/26 08:52:05;;;;;;;;;;;;;;;23.71;36.17;99630.50;5100228;28;19912;-68
2022/09/26 08:54:36;;;;;;;;;;;;;;;23.72;36.59;99621.31;5099930;28;20133;-68
2022/09/26 08:57:13;;;;;;;;;;;;;;;23.89;36.03;99611.25;5099956;28;19912;-68
2022/09/26 08:59:40;;;;;;;;;;;;;;;23.76;36.33;99604.34;5099824;28;20249;-68
2022/09/26 09:02:22;;;;;;;;;;;;;;;23.91;36.67;99603.72;5100533;28;19912;-68
2022/09/26 09:04:47;;;;;;;;;;;;;;;23.98;36.88;99614.38;5100208;28;19927;-68
2022/09/26 09:07:20;;;;;;;;;;;;;;;23.99;36.53;99616.81;5098238;28;19919;-68
2022/09/26 09:09:45;;;;;;;;;;;;;;;24.23;35.05;99614.66;5099488;28;20077;-68
2022/09/26 09:12:13;;;;;;;;;;;;;;;24.16;35.23;99612.16;5100351;28;19930;-68
2022/09/26 09:14:38;;;;;;;;;;;;;;;23.98;35.19;99607.06;5099417;28;19986;-68
2022/09/26 09:17:23;;;;;;;;;;;;;;;23.87;35.79;99599.88;5100552;28;19912;-68
2022/09/26 09:20:06;;;;;;;;;;;;;;;23.72;35.83;99600.50;5100445;28;20306;-68
2022/09/26 09:22:39;;;;;;;;;;;;;;;23.36;36.39;99585.69;5099655;28;20008;-68
2022/09/26 09:25:15;;;;;;;;;;;;;;;23.56;37.28;99586.00;5099626;28;20213;-68
2022/09/26 09:27:53;;;;;;;;;;;;;;;23.61;36.36;99579.00;5099620;28;19927;-68
2022/09/26 09:30:23;;;;;;;;;;;;;;;23.66;36.58;99569.09;5099045;28;20259;-68
2022/09/26 09:32:59;;;;;;;;;;;;;;;23.18;37.31;99570.59;5099815;28;19945;-68
2022/09/26 09:35:30;;;;;;;;;;;;;;;23.07;37.65;99567.97;5099415;28;19947;-68
2022/09/26 09:37:56;;;;;;;;;;;;;;;22.99;39.06;99573.81;5099325;28;19923;-68
2022/09/26 09:40:40;;;;;;;;;;;;;;;23.15;38.28;99575.66;5097629;28;20269;-68
2022/09/26 09:43:15;;;;;;;;;;;;;;;23.13;38.67;99575.91;5099283;28;19912;-68
2022/09/26 09:45:44;;;;;;;;;;;;;;;23.24;38.66;99568.78;5098233;28;19915;-68
2022/09/26 09:48:11;;;;;;;;;;;;;;;23.26;38.63;99550.44;5099658;28;19912;-68
2022/09/26 09:50:55;;;;;;;;;;;;;;;23.54;37.59;99553.00;5098945;28;20025;-68
2022/09/26 09:53:42;;;;;;;;;;;;;;;23.40;37.76;99543.59;5099678;28;20624;-68
2022/09/26 09:56:26;;;;;;;;;;;;;;;23.39;37.86;99530.34;5099637;28;19931;-68
2022/09/26 09:58:52;;;;;;;;;;;;;;;23.01;36.63;99531.16;5099751;28;20208;-68
2022/09/26 10:01:24;;;;;;;;;;;;;;;23.13;37.33;99519.19;5098486;28;19916;-68
2022/09/26 10:04:09;;;;;;;;;;;;;;;23.13;37.64;99521.06;5101017;28;19928;-68
2022/09/26 10:06:34;;;;;;;;;;;;;;;23.20;38.01;99524.41;5100623;28;19924;-68
2022/09/26 10:09:18;;;;;;;;;;;;;;;22.85;37.36;99520.13;5099237;28;20010;-68
2022/09/26 10:11:43;;;;;;;;;;;;;;;22.87;36.92;99517.97;5098918;28;19916;-69
2022/09/26 10:14:12;;;;;;;;;;;;;;;23.04;36.97;99519.88;5114109;28;20149;-68
2022/09/26 10:16:57;;;;;;;;;;;;;;;23.13;37.19;99515.66;5098566;28;19916;-68
2022/09/26 10:19:32;;;;;;;;;;;;;;;23.12;37.21;99514.84;5098228;28;19916;-68
2022/09/26 10:21:58;;;;;;;;;;;;;;;23.13;37.08;99511.09;5098042;28;20182;-68
2022/09/26 10:24:33;;;;;;;;;;;;;;;22.82;35.81;99507.09;5098971;28;19931;-68
2022/09/26 10:27:21;;;;;;;;;;;;;;;22.71;35.78;99509.88;5098822;28;19927;-68
2022/09/26 10:29:54;;;;;;;;;;;;;;;23.02;36.88;99503.91;5063122;28;19928;-68
2022/09/26 10:32:20;;;;;;;;;;;;;;;23.23;37.34;99497.72;5098631;28;20228;-68
2022/09/26 10:35:00;;;;;;;;;;;;;;;23.47;36.85;99492.88;5098230;28;19955;-68
2022/09/26 10:37:29;;;;;;;;;;;;;;;23.52;36.61;99486.72;5097543;28;20007;-68
2022/09/26 10:42:40;;;;;;;;;;;;;;;23.65;35.38;99472.03;5099126;28;19965;-68
2022/09/26 10:45:14;;;;;;;;;;;;;;;23.54;36.03;99463.81;5097781;28;20137;-68
2022/09/26 10:47:41;;;;;;;;;;;;;;;23.33;36.04;99463.78;5096824;28;19912;-68
2022/09/26 10:50:10;;;;;;;;;;;;;;;23.52;37.09;99473.19;5098281;28;19915;-68
2022/09/26 10:52:56;;;;;;;;;;;;;;;23.47;35.09;99465.03;5113990;28;20231;-68
2022/09/26 10:55:26;;;;;;;;;;;;;;;23.56;34.83;99471.66;5098532;28;19951;-68
2022/09/26 10:57:53;;;;;;;;;;;;;;;23.61;34.66;99476.31;5098396;28;19960;-68
2022/09/26 11:00:37;;;;;;;;;;;;;;;23.68;35.90;99469.63;5097419;28;19923;-68
2022/09/26 11:03:04;;;;;;;;;;;;;;;23.84;35.42;99466.00;5096917;28;20090;-68
2022/09/26 11:08:17;;;;;;;;;;;;;;;23.99;34.70;99440.22;5096668;28;20227;-68
2022/09/26 11:10:45;;;;;;;;;;;;;;;23.98;35.32;99442.09;5098614;28;19916;-68
2022/09/26 11:13:16;;;;;;;;;;;;;;;23.98;34.64;99435.88;5097651;28;20232;-68
2022/09/26 11:16:00;;;;;;;;;;;;;;;24.00;34.11;99433.72;5097771;28;20247;-68
2022/09/26 11:18:41;;;;;;;;;;;;;;;24.16;33.45;99430.09;5096599;28;20207;-68
2022/09/26 11:21:21;;;;;;;;;;;;;;;24.18;33.44;99419.81;5097058;28;20209;-68
2022/09/26 11:23:55;;;;;;;;;;;;;;;24.13;33.11;99417.88;5097133;28;19996;-69
2022/09/26 11:26:24;;;;;;;;;;;;;;;24.22;32.83;99417.41;5097398;28;19916;-68
2022/09/26 11:29:00;;;;;;;;;;;;;;;24.36;33.48;99408.63;5098333;28;19983;-68
2022/09/26 11:31:29;;;;;;;;;;;;;;;23.92;33.49;99416.06;5097887;28;19953;-68
2022/09/26 11:33:57;;;;;;;;;;;;;;;24.12;33.52;99410.84;5096795;28;19927;-68
2022/09/26 11:36:23;;;;;;;;;;;;;;;24.16;32.63;99411.16;5097085;28;20287;-68
2022/09/26 11:38:48;;;;;;;;;;;;;;;24.20;32.20;99412.25;5097627;28;19912;-68
2022/09/26 11:41:38;;;;;;;;;;;;;;;24.09;33.10;99416.78;5098382;28;20109;-68
2022/09/26 11:44:19;;;;;;;;;;;;;;;24.04;33.61;99415.91;5098521;28;19978;-68
2022/09/26 11:46:46;;;;;;;;;;;;;;;24.05;32.87;99420.25;5097408;28;20036;-68
2022/09/26 11:49:12;;;;;;;;;;;;;;;24.10;33.45;99421.13;5098033;28;19920;-68
2022/09/26 11:51:56;;;;;;;;;;;;;;;24.11;33.95;99414.63;5097057;28;19923;-68
2022/09/26 11:54:39;;;;;;;;;;;;;;;24.29;33.70;99399.09;5096439;28;19916;-68
2022/09/26 11:57:24;;;;;;;;;;;;;;;24.24;33.53;99383.63;5096611;28;19946;-68
2022/09/26 11:59:57;;;;;;;;;;;;;;;23.86;34.05;99379.22;5100153;28;19980;-68
2022/09/26 12:02:31;;;;;;;;;;;;;;;24.00;34.54;99372.34;5100196;28;19916;-68
2022/09/26 12:05:12;;;;;;;;;;;;;;;24.27;34.02;99371.50;5101111;28;19916;-68
2022/09/26 12:07:47;;;;;;;;;;;;;;;24.43;33.90;99362.38;5102289;28;19912;-68
2022/09/26 12:10:44;;;;;;;;;;;;;;;24.57;33.45;99360.03;5101459;28;20140;-68
2022/09/26 12:13:16;;;;;;;;;;;;;;;24.54;33.86;99361.38;5064865;28;19916;-68
2022/09/26 12:16:01;;;;;;;;;;;;;;;24.55;33.22;99356.78;5101322;28;19927;-69
2022/09/26 12:18:42;;;;;;;;;;;;;;;24.39;33.21;99355.88;5100666;28;19915;-68
2022/09/26 12:21:15;;;;;;;;;;;;;;;24.51;34.61;99354.59;5100983;28;19986;-68
2022/09/26 12:23:44;;;;;;;;;;;;;;;24.61;34.14;99350.31;5102021;28;19951;-68
2022/09/26 12:26:09;;;;;;;;;;;;;;;24.74;33.03;99339.00;5100544;28;19924;-68
2022/09/26 12:28:47;;;;;;;;;;;;;;;24.87;33.30;99351.22;5100814;28;19949;-68
2022/09/26 12:31:16;;;;;;;;;;;;;;;24.80;33.03;99335.22;5100049;28;19958;-68
2022/09/26 12:34:06;;;;;;;;;;;;;;;24.88;33.27;99334.72;5100289;28;20205;-68
2022/09/26 12:36:36;;;;;;;;;;;;;;;24.86;33.80;99328.75;5100338;28;19951;-69
2022/09/26 12:39:01;;;;;;;;;;;;;;;24.94;33.79;99330.94;5099995;28;19919;-68
2022/09/26 12:41:26;;;;;;;;;;;;;;;24.91;33.22;99331.47;5100323;28;19920;-68
2022/09/26 12:43:55;;;;;;;;;;;;;;;24.98;32.68;99318.56;5101743;28;19912;-68
2022/09/26 12:46:28;;;;;;;;;;;;;;;25.01;32.12;99315.31;5103727;28;20033;-68
2022/09/26 12:49:02;;;;;;;;;;;;;;;24.75;33.02;99305.44;5105163;28;19985;-68
2022/09/26 12:51:36;;;;;;;;;;;;;;;24.73;32.19;99316.53;5104314;28;19916;-68
2022/09/26 12:54:05;;;;;;;;;;;;;;;24.47;33.48;99314.78;5104897;28;19949;-68
2022/09/26 12:56:48;;;;;;;;;;;;;;;24.61;32.78;99324.06;5103844;28;19916;-68
2022/09/26 12:59:16;;;;;;;;;;;;;;;24.67;32.64;99317.59;5103960;28;20253;-68
2022/09/26 13:01:43;;;;;;;;;;;;;;;24.77;31.99;99305.97;5104348;28;19958;-68
2022/09/26 13:04:27;;;;;;;;;;;;;;;24.83;33.65;99305.72;5104430;28;19954;-68
2022/09/26 13:06:57;;;;;;;;;;;;;;;24.69;33.28;99299.19;5103349;28;19923;-68
2022/09/26 13:09:22;;;;;;;;;;;;;;;24.52;33.12;99296.66;5103202;28;20113;-68
2022/09/26 13:11:51;;;;;;;;;;;;;;;24.60;33.16;99292.66;5104155;28;19926;-68